Time;durP1;ratioP1;P1;durP2;ratioP2;P2;SDS_P1;SDS_P2;PMS_P1;PMS_P2;Temp;Humidity;BMP_temperature;BMP_pressure;BME280_temperature;BME280_humidity;BME280_pressure;Samples;Min_cycle;Max_cycle;Signal;HPM_P1;HPM_P2
2022/01/11 00:00:28;;;;;;;14.18;11.95;;;;;;;5.49;69.61;101515.88;10452359;28;20495;-60
2022/01/11 00:05:36;;;;;;;13.95;12.27;;;;;;;5.52;69.48;101523.66;10443012;28;20045;-61
2022/01/11 00:15:48;;;;;;;16.73;12.40;;;;;;;5.53;69.37;101532.47;10477620;22;20124;-72
2022/01/11 00:20:50;;;;;;;15.52;12.88;;;;;;;5.50;69.37;101533.44;10484292;28;20052;-74
2022/01/11 00:25:56;;;;;;;18.63;14.10;;;;;;;5.50;69.06;101536.09;10484833;28;20052;-72
2022/01/11 00:30:57;;;;;;;16.10;13.13;;;;;;;5.44;69.29;101541.59;10491443;28;20066;-70
2022/01/11 00:36:00;;;;;;;16.00;12.68;;;;;;;5.46;69.03;101539.75;10470744;28;20054;-73
2022/01/11 00:41:07;;;;;;;16.00;13.70;;;;;;;5.45;69.03;101540.66;10488224;28;20526;-71
2022/01/11 00:46:10;;;;;;;16.88;13.15;;;;;;;5.36;69.97;101543.66;10488695;28;20123;-73
2022/01/11 00:51:12;;;;;;;16.45;13.38;;;;;;;5.39;70.11;101546.19;10492131;28;20047;-72
2022/01/11 00:56:14;;;;;;;14.63;11.95;;;;;;;5.37;69.79;101548.03;10476286;28;20101;-71
2022/01/11 01:01:15;;;;;;;18.13;13.82;;;;;;;5.32;69.51;101540.28;10500382;28;20048;-72
2022/01/11 01:06:17;;;;;;;18.27;13.27;;;;;;;5.28;69.50;101533.41;10523020;28;20067;-71
2022/01/11 01:11:18;;;;;;;14.13;12.30;;;;;;;5.22;69.92;101542.41;10490305;28;20048;-71
2022/01/11 01:16:21;;;;;;;14.15;12.65;;;;;;;5.19;70.31;101555.72;10489008;28;20053;-72
2022/01/11 01:21:22;;;;;;;14.50;12.27;;;;;;;5.31;69.93;101563.19;10483451;28;20044;-73
2022/01/11 01:26:24;;;;;;;16.15;11.68;;;;;;;5.25;70.71;101555.47;10483197;28;20131;-72
2022/01/11 01:31:27;;;;;;;16.13;13.40;;;;;;;5.28;70.00;101552.75;10488365;28;20061;-73
2022/01/11 01:36:28;;;;;;;17.38;12.75;;;;;;;5.24;70.39;101558.19;10488948;28;20078;-71
2022/01/11 01:41:29;;;;;;;15.60;13.35;;;;;;;5.16;70.36;101553.19;10488523;28;20047;-73
2022/01/11 01:46:32;;;;;;;17.73;13.00;;;;;;;5.19;70.74;101565.44;10498123;28;20123;-73
2022/01/11 01:51:34;;;;;;;18.15;14.43;;;;;;;5.14;70.39;101573.50;10478915;28;20426;-72
2022/01/11 01:56:36;;;;;;;15.88;13.40;;;;;;;5.12;70.67;101570.09;10482171;28;20044;-72
2022/01/11 02:01:45;;;;;;;17.58;13.70;;;;;;;5.17;70.51;101577.84;10496173;28;20147;-70
2022/01/11 02:06:47;;;;;;;20.35;14.00;;;;;;;5.18;70.69;101575.13;10491971;28;20040;-72
2022/01/11 02:11:48;;;;;;;16.10;13.35;;;;;;;5.00;70.89;101586.34;10483614;28;20048;-73
2022/01/11 02:16:50;;;;;;;15.70;12.80;;;;;;;4.94;71.24;101588.28;10490169;28;20052;-71
2022/01/11 02:21:51;;;;;;;20.17;14.52;;;;;;;4.89;70.99;101584.09;10492638;28;20056;-71
2022/01/11 02:26:53;;;;;;;15.15;13.13;;;;;;;4.82;71.11;101598.41;10477142;28;20147;-72
2022/01/11 02:31:55;;;;;;;18.83;14.00;;;;;;;4.83;71.03;101589.59;10471343;28;20528;-72
2022/01/11 02:36:57;;;;;;;18.92;15.57;;;;;;;4.78;71.55;101595.88;10487914;28;20447;-72
2022/01/11 02:42:01;;;;;;;15.88;13.73;;;;;;;4.78;71.49;101587.97;10491288;28;20127;-72
2022/01/11 02:47:03;;;;;;;17.90;13.85;;;;;;;4.80;71.49;101587.91;10468751;28;20055;-72
2022/01/11 02:52:04;;;;;;;16.10;12.77;;;;;;;4.76;72.01;101594.22;10482601;28;20490;-72
2022/01/11 02:57:06;;;;;;;17.55;15.25;;;;;;;4.79;71.63;101596.75;10497846;28;20076;-72
2022/01/11 03:02:07;;;;;;;16.08;13.48;;;;;;;4.78;71.67;101602.94;10491274;28;21572;-71
2022/01/11 03:07:09;;;;;;;15.05;12.55;;;;;;;4.76;71.23;101594.22;10485906;28;20518;-72
2022/01/11 03:12:11;;;;;;;16.63;12.77;;;;;;;4.79;71.17;101609.94;10491907;28;20131;-72
2022/01/11 03:17:12;;;;;;;16.83;12.52;;;;;;;4.76;71.18;101610.06;10472292;28;20734;-72
2022/01/11 03:22:14;;;;;;;16.27;12.30;;;;;;;4.77;71.04;101617.03;10484162;28;20536;-73
2022/01/11 03:27:16;;;;;;;13.38;10.85;;;;;;;4.78;71.09;101618.78;10479645;28;20629;-72
2022/01/11 03:32:19;;;;;;;17.60;12.02;;;;;;;4.73;70.80;101615.44;10493928;28;21069;-71
2022/01/11 03:37:38;;;;;;;13.50;11.05;;;;;;;4.74;70.65;101627.69;10486015;28;20055;-72
2022/01/11 03:42:40;;;;;;;13.23;9.73;;;;;;;4.68;70.92;101627.91;10484818;28;20052;-71
2022/01/11 03:47:41;;;;;;;14.52;11.73;;;;;;;4.68;70.76;101623.47;10482723;28;20126;-71
2022/01/11 03:52:44;;;;;;;15.93;11.77;;;;;;;4.74;70.66;101636.50;10491566;28;20163;-70
2022/01/11 03:57:45;;;;;;;13.32;9.77;;;;;;;4.76;70.71;101636.44;10489505;28;20721;-73
2022/01/11 04:02:46;;;;;;;11.68;9.82;;;;;;;4.78;69.78;101639.88;10489897;28;20059;-72
2022/01/11 04:07:48;;;;;;;12.35;9.98;;;;;;;4.73;69.87;101647.09;10506865;28;20044;-72
2022/01/11 04:12:50;;;;;;;12.30;10.05;;;;;;;4.70;70.23;101647.16;10508825;28;20036;-71
2022/01/11 04:17:52;;;;;;;13.65;9.60;;;;;;;4.67;70.30;101655.19;10521515;28;20047;-72
2022/01/11 04:22:53;;;;;;;11.43;9.00;;;;;;;4.67;70.30;101653.44;10521285;28;20052;-71
2022/01/11 04:27:55;;;;;;;13.38;9.10;;;;;;;4.66;70.11;101656.97;10486866;28;20078;-71
2022/01/11 04:32:56;;;;;;;14.80;10.07;;;;;;;4.67;70.75;101657.81;10491158;28;20067;-71
2022/01/11 04:37:58;;;;;;;13.35;9.68;;;;;;;4.60;71.05;101665.94;10472674;28;20078;-72
2022/01/11 04:42:59;;;;;;;13.07;10.65;;;;;;;4.68;71.12;101670.13;10478029;28;20130;-73
2022/01/11 04:48:01;;;;;;;12.25;10.30;;;;;;;4.64;71.47;101664.09;10473601;28;20131;-71
2022/01/11 04:53:03;;;;;;;15.15;11.13;;;;;;;4.63;71.25;101662.34;10497604;28;20146;-70
2022/01/11 04:58:04;;;;;;;14.75;11.20;;;;;;;4.59;71.54;101672.16;10478453;28;20132;-71
2022/01/11 05:03:06;;;;;;;12.88;11.45;;;;;;;4.57;72.20;101676.59;10478640;28;20770;-70
2022/01/11 05:08:07;;;;;;;14.63;10.68;;;;;;;4.58;72.10;101675.69;10482458;28;20139;-72
2022/01/11 05:13:13;;;;;;;14.35;9.95;;;;;;;4.63;72.31;101682.59;10494800;28;20050;-72
2022/01/11 05:18:15;;;;;;;16.88;12.10;;;;;;;4.55;72.85;101674.94;10487812;28;20123;-71
2022/01/11 05:23:17;;;;;;;15.25;11.23;;;;;;;4.68;72.35;101680.66;10500019;28;20128;-71
2022/01/11 05:28:18;;;;;;;15.60;11.60;;;;;;;4.69;72.26;101683.25;10493055;28;20055;-72
2022/01/11 05:33:20;;;;;;;15.18;11.23;;;;;;;4.81;72.03;101692.53;10488317;28;20139;-72
2022/01/11 05:38:21;;;;;;;16.58;11.07;;;;;;;4.80;71.94;101682.88;10496391;28;20140;-70
2022/01/11 05:43:23;;;;;;;13.68;11.48;;;;;;;4.76;72.02;101683.94;10485717;28;20135;-71
2022/01/11 05:48:24;;;;;;;15.70;11.48;;;;;;;4.73;72.56;101694.59;10475980;28;20598;-71
2022/01/11 05:53:26;;;;;;;18.10;12.48;;;;;;;4.79;72.34;101697.00;10473281;28;20348;-72
2022/01/11 05:58:27;;;;;;;13.50;11.05;;;;;;;4.84;72.39;101702.97;10481711;28;20509;-72
2022/01/11 06:03:29;;;;;;;19.10;13.13;;;;;;;4.85;72.55;101704.72;10497112;28;20062;-72
2022/01/11 06:08:30;;;;;;;15.93;11.18;;;;;;;4.83;71.49;101705.69;10498552;28;20055;-71
2022/01/11 06:13:32;;;;;;;13.60;10.93;;;;;;;4.83;71.80;101709.16;10504799;28;20071;-72
2022/01/11 06:18:34;;;;;;;13.68;9.95;;;;;;;4.83;71.98;101719.72;10478907;28;20051;-71
2022/01/11 06:23:36;;;;;;;11.90;10.60;;;;;;;4.78;71.94;101732.22;10503269;28;20043;-73
2022/01/11 06:28:38;;;;;;;14.32;9.63;;;;;;;4.80;71.99;101719.81;10494655;28;20240;-73
2022/01/11 06:33:39;;;;;;;13.15;10.27;;;;;;;4.87;71.77;101726.63;10502857;28;20056;-72
2022/01/11 06:38:42;;;;;;;15.18;11.45;;;;;;;4.89;71.83;101737.97;10480942;28;20082;-72
2022/01/11 06:43:44;;;;;;;17.20;11.70;;;;;;;4.89;72.01;101732.72;10478805;28;20057;-73
2022/01/11 06:48:45;;;;;;;13.40;10.25;;;;;;;4.88;71.91;101740.69;10501258;28;20043;-71
2022/01/11 06:53:46;;;;;;;14.90;10.10;;;;;;;4.91;71.75;101748.53;10500695;28;20050;-72
2022/01/11 06:58:48;;;;;;;14.20;10.77;;;;;;;4.96;71.48;101746.56;10503820;28;20048;-71
2022/01/11 07:03:50;;;;;;;13.68;10.93;;;;;;;4.87;72.06;101752.16;10506739;28;20052;-71
2022/01/11 07:08:51;;;;;;;14.73;11.02;;;;;;;4.83;72.76;101747.88;10492125;28;20064;-69
2022/01/11 07:13:52;;;;;;;13.23;10.93;;;;;;;4.84;72.45;101755.75;10515808;28;20056;-71
2022/01/11 07:18:54;;;;;;;13.73;11.05;;;;;;;4.86;72.15;101768.91;10525478;28;20075;-70
2022/01/11 07:23:55;;;;;;;12.55;10.45;;;;;;;4.89;71.96;101772.28;10528705;28;20044;-72
2022/01/11 07:28:57;;;;;;;12.88;10.27;;;;;;;4.88;71.99;101767.06;10509891;28;20170;-71
2022/01/11 07:33:59;;;;;;;17.98;11.23;;;;;;;4.83;72.27;101776.91;10503028;28;20543;-72
2022/01/11 07:39:00;;;;;;;13.45;9.80;;;;;;;4.84;72.09;101791.84;10503081;28;20048;-71
2022/01/11 07:44:02;;;;;;;16.05;12.20;;;;;;;4.87;72.44;101792.59;10507973;28;20412;-70
2022/01/11 07:49:05;;;;;;;17.90;11.30;;;;;;;4.86;72.08;101790.84;10491864;28;20542;-70
2022/01/11 07:54:06;;;;;;;17.20;12.45;;;;;;;4.86;71.73;101798.78;10506454;28;20071;-71
2022/01/11 07:59:09;;;;;;;14.05;10.95;;;;;;;4.81;72.29;101795.44;10502181;28;20051;-71
2022/01/11 08:04:11;;;;;;;15.63;11.50;;;;;;;4.89;72.43;101803.09;10502084;28;20130;-72
2022/01/11 08:09:15;;;;;;;15.93;11.57;;;;;;;4.88;72.07;101804.00;10511025;28;20053;-70
2022/01/11 08:14:17;;;;;;;13.18;10.00;;;;;;;4.99;71.97;101812.47;10510627;28;20063;-70
2022/01/11 08:19:24;;;;;;;12.93;9.98;;;;;;;4.93;71.53;101816.16;10508511;28;20143;-70
2022/01/11 08:24:26;;;;;;;14.95;10.25;;;;;;;5.01;71.66;101821.16;10500685;28;20052;-70
2022/01/11 08:29:27;;;;;;;13.70;10.82;;;;;;;5.11;71.00;101821.75;10543234;28;20359;-70
2022/01/11 08:34:28;;;;;;;13.30;10.25;;;;;;;5.14;70.66;101825.16;10495708;28;20663;-71
2022/01/11 08:39:30;;;;;;;15.30;10.82;;;;;;;5.18;70.98;101825.94;10487442;28;20131;-71
2022/01/11 08:44:32;;;;;;;14.57;9.82;;;;;;;5.32;69.94;101825.47;10495873;28;20141;-70
2022/01/11 08:49:34;;;;;;;12.65;9.38;;;;;;;5.39;69.88;101826.09;10482290;28;20489;-70
2022/01/11 08:54:36;;;;;;;12.68;10.15;;;;;;;5.44;69.74;101837.41;10487492;28;20054;-71
2022/01/11 08:59:37;;;;;;;12.10;10.18;;;;;;;5.50;69.35;101834.53;10480353;28;20139;-70
2022/01/11 09:04:39;;;;;;;12.93;9.88;;;;;;;5.68;69.22;101853.34;10494389;28;20059;-70
2022/01/11 09:09:41;;;;;;;11.95;9.48;;;;;;;5.76;68.77;101843.34;10498390;28;20054;-71
2022/01/11 09:14:42;;;;;;;13.93;9.90;;;;;;;5.83;68.53;101853.66;10501028;28;21360;-72
2022/01/11 09:19:43;;;;;;;13.27;9.93;;;;;;;5.92;68.59;101857.75;10486643;28;20532;-72
2022/01/11 09:24:45;;;;;;;15.60;10.90;;;;;;;6.01;68.30;101853.94;10485707;28;20048;-70
2022/01/11 09:29:46;;;;;;;9.32;8.25;;;;;;;6.10;67.47;101863.34;10478886;28;20129;-70
2022/01/11 09:34:48;;;;;;;11.63;8.93;;;;;;;6.18;67.68;101871.84;10480117;28;20051;-73
2022/01/11 09:39:50;;;;;;;11.32;8.82;;;;;;;6.24;67.31;101876.91;10506171;28;20054;-72
2022/01/11 09:44:52;;;;;;;11.30;9.07;;;;;;;6.34;66.55;101874.81;10486448;28;20723;-72
2022/01/11 09:49:54;;;;;;;11.35;9.30;;;;;;;6.39;66.67;101878.13;10489038;28;20135;-68
2022/01/11 09:54:55;;;;;;;12.13;10.35;;;;;;;6.48;66.56;101880.41;10505049;28;20098;-69
2022/01/11 09:59:57;;;;;;;11.73;9.82;;;;;;;6.56;66.71;101874.88;10502231;28;20749;-70
2022/01/11 10:05:01;;;;;;;10.70;9.13;;;;;;;6.66;66.86;101881.50;10502716;28;20127;-70
2022/01/11 10:10:03;;;;;;;13.90;9.97;;;;;;;6.65;66.16;101879.81;10505051;28;20134;-71
2022/01/11 10:15:05;;;;;;;11.88;9.30;;;;;;;6.70;66.86;101874.34;10503307;28;20151;-70
2022/01/11 10:20:11;;;;;;;12.48;9.63;;;;;;;6.60;66.00;101873.81;10505716;28;20093;-69
2022/01/11 10:25:13;;;;;;;12.05;10.18;;;;;;;6.53;66.42;101869.66;10528305;28;20039;-70
2022/01/11 10:30:17;;;;;;;11.35;10.15;;;;;;;6.54;66.40;101874.06;10516447;28;20043;-70
2022/01/11 10:35:40;;;;;;;13.20;10.23;;;;;;;6.53;66.60;101873.19;10550826;28;20124;-71
2022/01/11 10:40:47;;;;;;;14.20;10.00;;;;;;;6.54;66.76;101869.63;10504728;28;20234;-71
2022/01/11 10:45:53;;;;;;;10.18;8.45;;;;;;;6.57;66.29;101875.72;10502589;28;20135;-70
2022/01/11 10:50:59;;;;;;;11.52;10.32;;;;;;;6.60;66.60;101865.88;10506047;28;20201;-70
2022/01/11 10:56:02;;;;;;;13.07;9.93;;;;;;;6.66;66.32;101885.94;10504339;28;20074;-69
2022/01/11 11:01:15;;;;;;;11.50;8.88;;;;;;;6.64;66.58;101879.88;10492947;28;20072;-68
2022/01/11 11:06:17;;;;;;;11.25;9.50;;;;;;;6.68;66.28;101884.97;10484755;28;20071;-69
2022/01/11 11:11:22;;;;;;;12.27;9.68;;;;;;;6.71;66.64;101884.88;10505053;28;20164;-71
2022/01/11 11:16:28;;;;;;;11.93;9.82;;;;;;;6.77;66.29;101881.13;10495861;28;20048;-69
2022/01/11 11:21:32;;;;;;;11.85;9.43;;;;;;;6.72;66.05;101870.72;10459829;28;20051;-68
2022/01/11 11:26:49;;;;;;;10.98;9.32;;;;;;;6.83;66.53;101864.13;10458825;28;20053;-70
2022/01/11 11:31:52;;;;;;;12.10;9.98;;;;;;;6.87;65.93;101863.09;10495140;28;20143;-71
2022/01/11 11:36:55;;;;;;;11.68;9.05;;;;;;;6.98;65.58;101858.25;10481101;28;20063;-70
2022/01/11 11:41:59;;;;;;;13.20;9.90;;;;;;;7.02;65.45;101869.56;10504443;28;20646;-70
2022/01/11 11:47:07;;;;;;;12.02;9.82;;;;;;;7.04;65.45;101859.75;10490262;28;20180;-70
2022/01/11 11:52:31;;;;;;;12.15;9.60;;;;;;;7.12;65.03;101848.88;10501771;28;20124;-70
2022/01/11 11:57:35;;;;;;;12.20;10.23;;;;;;;7.27;64.93;101845.59;10479886;28;20498;-68
2022/01/11 12:02:43;;;;;;;13.40;9.27;;;;;;;7.66;63.71;101834.25;10488068;28;20131;-70
2022/01/11 12:07:46;;;;;;;11.48;10.07;;;;;;;8.05;62.63;101833.44;10496552;28;20471;-70
2022/01/11 12:12:53;;;;;;;13.25;8.77;;;;;;;8.27;61.30;101833.34;10496889;28;20044;-69
2022/01/11 12:17:57;;;;;;;11.32;10.13;;;;;;;8.20;61.80;101841.63;10496867;28;20308;-70
2022/01/11 12:22:58;;;;;;;12.40;10.13;;;;;;;8.02;62.45;101838.88;10490056;28;20127;-70
2022/01/11 12:28:06;;;;;;;14.27;9.88;;;;;;;8.05;62.00;101828.13;10474964;28;20056;-70
2022/01/11 12:33:12;;;;;;;12.45;8.98;;;;;;;8.01;62.72;101820.38;10499496;28;20129;-69
2022/01/11 12:38:13;;;;;;;12.13;9.02;;;;;;;8.22;61.91;101832.66;10501283;28;20044;-70
2022/01/11 12:43:36;;;;;;;12.18;9.55;;;;;;;8.38;61.84;101834.63;10498997;28;20127;-70
2022/01/11 12:48:44;;;;;;;13.30;10.25;;;;;;;8.50;61.46;101828.78;10497544;28;20462;-67
2022/01/11 12:53:46;;;;;;;12.75;9.73;;;;;;;8.57;60.92;101822.25;10495891;28;20060;-67
2022/01/11 12:58:55;;;;;;;11.48;8.85;;;;;;;8.52;61.33;101821.59;10483489;28;20163;-70
2022/01/11 13:04:00;;;;;;;12.23;9.07;;;;;;;8.61;61.13;101820.31;10495934;28;20180;-69
2022/01/11 13:09:12;;;;;;;14.20;9.52;;;;;;;8.75;60.85;101820.53;10499742;28;20048;-67
2022/01/11 13:14:18;;;;;;;12.00;8.85;;;;;;;8.84;60.65;101820.06;10507414;28;20048;-70
2022/01/11 13:19:19;;;;;;;11.48;9.88;;;;;;;8.84;60.66;101825.41;10510033;28;20043;-70
2022/01/11 13:29:22;;;;;;;10.57;9.35;;;;;;;8.76;60.81;101821.38;10507356;28;20050;-71
2022/01/11 13:34:24;;;;;;;11.43;8.95;;;;;;;8.66;60.38;101823.59;10482493;28;20048;-67
2022/01/11 13:39:32;;;;;;;14.05;11.75;;;;;;;8.42;60.94;101830.88;10508440;28;20105;-66
2022/01/11 13:44:37;;;;;;;12.73;9.75;;;;;;;8.24;61.46;101832.59;10492056;28;20133;-68
2022/01/11 13:49:42;;;;;;;10.75;8.48;;;;;;;8.14;62.02;101827.72;10503509;28;20063;-71
2022/01/11 13:54:49;;;;;;;10.75;8.77;;;;;;;8.11;62.00;101833.16;10490538;28;20054;-71
2022/01/11 14:00:15;;;;;;;9.95;8.93;;;;;;;8.02;62.73;101828.25;10517433;28;20063;-71
2022/01/11 14:05:19;;;;;;;13.20;10.07;;;;;;;7.96;62.30;101823.22;10514910;28;20627;-70
2022/01/11 14:10:27;;;;;;;12.00;9.52;;;;;;;7.93;62.82;101833.97;10501554;28;20134;-66
2022/01/11 14:15:29;;;;;;;11.05;9.40;;;;;;;7.86;63.43;101837.81;10505451;28;20395;-71
2022/01/11 14:20:33;;;;;;;14.43;9.60;;;;;;;7.78;63.33;101831.06;10515697;28;20104;-71
2022/01/11 14:25:38;;;;;;;11.35;9.15;;;;;;;7.76;63.96;101843.53;10506629;28;20082;-70
2022/01/11 14:30:44;;;;;;;11.63;9.15;;;;;;;7.74;64.26;101837.41;10507429;28;20071;-72
2022/01/11 14:36:17;;;;;;;13.25;9.00;;;;;;;7.77;63.78;101837.28;10486245;28;20039;-68
2022/01/11 14:41:36;;;;;;;10.50;8.05;;;;;;;7.62;63.75;101840.59;10482241;28;20052;-70
2022/01/11 14:46:49;;;;;;;9.18;8.27;;;;;;;7.62;63.74;101845.91;10505098;28;20052;-67
2022/01/11 14:51:54;;;;;;;9.40;7.18;;;;;;;7.58;63.17;101849.59;10483977;28;20140;-70
2022/01/11 14:56:58;;;;;;;9.52;8.20;;;;;;;7.48;63.90;101850.94;10501947;28;20040;-70
2022/01/11 15:02:04;;;;;;;10.23;8.52;;;;;;;7.56;64.37;101854.13;10498767;28;20052;-71
2022/01/11 15:07:07;;;;;;;11.57;10.02;;;;;;;7.58;63.69;101854.91;10500133;28;20058;-72
2022/01/11 15:12:18;;;;;;;11.70;9.00;;;;;;;7.56;63.82;101859.41;10484605;28;20080;-70
2022/01/11 15:17:21;;;;;;;10.75;8.20;;;;;;;7.53;63.16;101851.59;10483904;28;20036;-69
2022/01/11 15:22:23;;;;;;;9.95;7.63;;;;;;;7.49;61.46;101857.94;10496051;28;20040;-72
2022/01/11 15:27:24;;;;;;;7.03;5.80;;;;;;;7.51;59.98;101858.75;10502984;28;20134;-68
2022/01/11 15:32:25;;;;;;;6.88;5.97;;;;;;;7.46;60.04;101861.59;10500976;28;20052;-70
2022/01/11 15:37:27;;;;;;;2.35;2.10;;;;;;;7.37;56.83;101862.84;10498072;28;20151;-68
2022/01/11 15:42:28;;;;;;;3.05;1.83;;;;;;;7.36;56.34;101860.25;10497563;28;20059;-68
2022/01/11 15:47:31;;;;;;;4.55;3.22;;;;;;;7.41;56.88;101874.16;10502746;28;20052;-69
2022/01/11 15:52:32;;;;;;;3.58;3.08;;;;;;;7.42;55.96;101871.44;10499707;28;20403;-69
2022/01/11 15:57:33;;;;;;;5.75;4.07;;;;;;;7.41;55.59;101879.47;10496967;28;20063;-67
2022/01/11 16:02:35;;;;;;;5.40;3.92;;;;;;;7.33;56.49;101871.84;10475357;28;20043;-67
2022/01/11 16:07:36;;;;;;;5.05;4.55;;;;;;;7.35;57.59;101877.91;10501876;28;20124;-69
2022/01/11 16:12:38;;;;;;;7.35;5.20;;;;;;;7.43;57.71;101874.94;10507227;28;20060;-70
2022/01/11 16:17:39;;;;;;;6.75;4.57;;;;;;;7.37;57.39;101875.22;10480080;28;20051;-66
2022/01/11 16:22:41;;;;;;;4.13;3.35;;;;;;;7.28;58.27;101872.94;10502971;28;20131;-71
2022/01/11 16:27:47;;;;;;;4.40;3.45;;;;;;;7.30;57.53;101895.81;10482956;28;20139;-69
2022/01/11 16:32:49;;;;;;;3.63;2.97;;;;;;;7.29;56.77;101902.03;10499199;28;20131;-69
2022/01/11 16:37:52;;;;;;;3.72;2.97;;;;;;;7.36;57.77;101900.84;10484486;28;20130;-70
2022/01/11 16:42:54;;;;;;;6.47;4.22;;;;;;;7.34;56.65;101901.81;10518173;28;20047;-71
2022/01/11 16:47:57;;;;;;;3.92;3.03;;;;;;;7.26;55.75;101908.28;10532282;28;20064;-71
2022/01/11 16:52:58;;;;;;;4.43;3.25;;;;;;;7.22;56.05;101911.13;10546793;28;20060;-68
2022/01/11 16:58:02;;;;;;;1.60;1.00;;;;;;;7.19;54.71;101916.56;10512691;28;20135;-70
2022/01/11 17:03:05;;;;;;;2.27;1.93;;;;;;;7.16;55.39;101928.16;10493182;28;20128;-72
2022/01/11 17:08:06;;;;;;;1.95;1.45;;;;;;;7.11;55.45;101935.41;10507647;28;20047;-71
2022/01/11 17:13:08;;;;;;;2.83;2.00;;;;;;;7.11;54.55;101939.84;10498136;28;20055;-72
2022/01/11 17:18:09;;;;;;;3.95;2.63;;;;;;;7.02;56.03;101947.19;10512723;28;20060;-72
2022/01/11 17:23:10;;;;;;;4.05;3.13;;;;;;;7.04;55.87;101937.44;10518337;28;20070;-71
2022/01/11 17:28:12;;;;;;;4.28;2.95;;;;;;;7.04;56.34;101944.50;10500525;28;20132;-70
2022/01/11 17:33:13;;;;;;;2.53;1.83;;;;;;;7.05;55.88;101952.38;10501346;28;20048;-70
2022/01/11 17:38:15;;;;;;;1.65;1.25;;;;;;;7.02;55.59;101941.91;10510739;28;20048;-71
2022/01/11 17:43:16;;;;;;;3.17;2.10;;;;;;;6.97;55.85;101948.31;10511321;28;20430;-71
2022/01/11 17:48:18;;;;;;;2.20;1.90;;;;;;;6.98;55.62;101944.72;10491645;28;20570;-69
2022/01/11 17:53:19;;;;;;;2.33;1.58;;;;;;;6.92;55.31;101959.09;10508738;28;20044;-70
2022/01/11 17:58:20;;;;;;;2.95;1.70;;;;;;;6.96;54.65;101947.44;10509321;28;20123;-70
2022/01/11 18:03:26;;;;;;;2.28;1.92;;;;;;;6.99;54.96;101951.75;10487613;28;20051;-70
2022/01/11 18:08:33;;;;;;;2.40;2.20;;;;;;;6.92;55.53;101953.81;10500313;28;20177;-70
2022/01/11 18:13:34;;;;;;;2.67;2.30;;;;;;;6.87;54.90;101953.09;10502020;28;20058;-70
2022/01/11 18:18:37;;;;;;;2.47;2.20;;;;;;;6.81;56.24;101959.47;10502916;28;20059;-69
2022/01/11 18:23:38;;;;;;;3.28;2.47;;;;;;;6.85;56.81;101958.44;10520281;28;20098;-70
2022/01/11 18:28:42;;;;;;;3.28;2.33;;;;;;;6.79;55.47;101976.34;10508799;28;20048;-70
2022/01/11 18:33:43;;;;;;;4.25;2.50;;;;;;;6.76;56.23;101979.13;10531656;28;20040;-71
2022/01/11 18:38:45;;;;;;;3.50;2.72;;;;;;;6.68;56.46;101974.97;10528431;28;20067;-71
2022/01/11 18:43:46;;;;;;;3.38;3.05;;;;;;;6.75;57.10;101980.03;10507956;28;20131;-70
2022/01/11 18:48:47;;;;;;;4.43;3.60;;;;;;;6.71;57.02;101995.13;10496220;28;23095;-70
2022/01/11 18:53:49;;;;;;;5.03;3.88;;;;;;;6.79;57.16;101992.22;10509559;28;20074;-70
2022/01/11 18:58:50;;;;;;;4.22;3.40;;;;;;;6.74;56.72;101995.06;10536544;28;20610;-71
2022/01/11 19:03:53;;;;;;;3.28;2.95;;;;;;;6.81;57.24;102000.97;10535441;28;20067;-71
2022/01/11 19:08:54;;;;;;;5.38;4.78;;;;;;;6.83;57.32;102001.75;10520924;28;20409;-71
2022/01/11 19:13:57;;;;;;;4.70;4.22;;;;;;;6.85;56.88;102002.59;10501394;28;20063;-71
2022/01/11 19:18:58;;;;;;;6.40;4.43;;;;;;;6.72;56.49;102002.16;10505713;28;20105;-69
2022/01/11 19:24:00;;;;;;;4.88;4.38;;;;;;;6.66;57.61;102005.88;10502666;28;20059;-71
2022/01/11 19:29:01;;;;;;;6.85;4.30;;;;;;;6.58;57.52;102015.06;10488516;28;20104;-69
2022/01/11 19:34:02;;;;;;;4.03;3.63;;;;;;;6.58;57.75;102015.06;10503441;28;20499;-69
2022/01/11 19:39:05;;;;;;;4.53;4.13;;;;;;;6.53;57.35;102012.53;10485948;28;20162;-70
2022/01/11 19:44:07;;;;;;;6.88;5.30;;;;;;;6.51;58.01;102004.66;10505756;28;21100;-71
2022/01/11 19:49:09;;;;;;;5.78;5.22;;;;;;;6.43;58.06;101996.16;10487783;28;20042;-70
2022/01/11 19:54:13;;;;;;;5.38;4.70;;;;;;;6.43;57.44;102000.59;10509016;28;20043;-69
2022/01/11 19:59:14;;;;;;;4.82;4.40;;;;;;;6.39;56.86;102009.53;10523863;28;20051;-71
2022/01/11 20:04:17;;;;;;;4.47;4.07;;;;;;;6.30;58.09;102010.72;10516013;28;20647;-71
2022/01/11 20:09:18;;;;;;;5.70;4.60;;;;;;;6.35;57.48;102008.75;10503552;28;20048;-71
2022/01/11 20:14:21;;;;;;;5.25;4.50;;;;;;;6.33;58.32;102010.59;10511152;28;20136;-72
2022/01/11 20:19:23;;;;;;;5.13;4.63;;;;;;;6.32;58.11;102019.44;10502037;28;20054;-72
2022/01/11 20:30:00;;;;;;;6.97;5.30;;;;;;;6.25;56.79;102029.38;10520878;28;21003;-70
2022/01/11 20:35:01;;;;;;;;;;;;;;;6.21;57.78;102033.03;10493973;28;20124;-70
2022/01/11 20:40:05;;;;;;;4.95;4.45;;;;;;;6.18;57.33;102038.44;10493356;28;19930;-70
2022/01/11 20:45:09;;;;;;;5.57;4.68;;;;;;;6.15;57.29;102043.81;10478207;28;20051;-73
2022/01/11 20:55:55;;;;;;;5.18;4.68;;;;;;;6.26;56.99;102049.63;10477543;28;20040;-72
2022/01/11 21:00:57;;;;;;;4.53;3.83;;;;;;;6.31;57.41;102060.06;10507533;28;20105;-72
2022/01/11 21:06:02;;;;;;;5.50;4.90;;;;;;;6.27;57.29;102064.56;10492499;28;20174;-71
2022/01/11 21:11:08;;;;;;;5.93;5.25;;;;;;;6.32;57.30;102053.81;10465973;28;20570;-73
2022/01/11 21:16:26;;;;;;;5.20;4.38;;;;;;;6.24;56.67;102064.66;10475384;28;20109;-71
2022/01/11 21:21:38;;;;;;;6.80;6.10;;;;;;;6.15;57.24;102068.47;10494192;28;20161;-71
2022/01/11 21:26:40;;;;;;;8.45;5.75;;;;;;;6.27;57.05;102072.50;10534778;28;20056;-75
2022/01/11 21:31:41;;;;;;;6.53;4.93;;;;;;;6.21;57.48;102064.78;10525254;28;20083;-72
2022/01/11 21:36:43;;;;;;;6.00;5.40;;;;;;;6.30;58.12;102080.31;10501095;28;20105;-71
2022/01/11 21:41:45;;;;;;;6.13;4.75;;;;;;;6.21;56.87;102069.22;10495343;28;20098;-72
2022/01/11 21:46:47;;;;;;;4.68;4.28;;;;;;;6.11;57.16;102073.91;10491568;28;20084;-70
2022/01/11 21:51:48;;;;;;;4.72;4.22;;;;;;;6.19;57.64;102077.19;10491401;28;20076;-70
2022/01/11 21:56:49;;;;;;;4.53;3.80;;;;;;;6.17;57.38;102077.25;10481429;28;20130;-70
2022/01/11 22:01:54;;;;;;;5.05;4.32;;;;;;;6.11;57.71;102082.75;10510922;28;20060;-70
2022/01/11 22:06:55;;;;;;;4.55;4.10;;;;;;;6.11;57.17;102073.91;10508968;28;20063;-71
2022/01/11 22:11:57;;;;;;;3.80;3.50;;;;;;;6.17;57.56;102071.97;10514357;28;20063;-72
2022/01/11 22:22:13;;;;;;;3.58;3.28;;;;;;;6.12;56.99;102079.16;10492603;28;20144;-71
2022/01/11 22:27:14;;;;;;;3.80;3.28;;;;;;;6.04;57.61;102075.06;10481962;28;20048;-70
2022/01/11 22:32:16;;;;;;;4.80;3.80;;;;;;;6.09;57.24;102086.34;10477879;28;20050;-71
2022/01/11 22:37:18;;;;;;;4.30;3.90;;;;;;;6.08;56.73;102095.19;10529857;28;20045;-72
2022/01/11 22:42:20;;;;;;;4.85;3.88;;;;;;;6.09;56.54;102102.19;10490143;28;20135;-71
2022/01/11 22:47:21;;;;;;;5.05;3.58;;;;;;;6.10;57.00;102110.09;10503285;28;20073;-71
2022/01/11 22:52:22;;;;;;;4.93;4.38;;;;;;;6.11;57.03;102106.53;10494999;28;20128;-70
2022/01/11 22:57:24;;;;;;;5.60;3.95;;;;;;;6.11;56.63;102105.66;10514930;28;20055;-71
2022/01/11 23:02:31;;;;;;;3.30;3.00;;;;;;;6.03;57.01;102110.34;10511828;28;20044;-71
2022/01/11 23:07:39;;;;;;;3.53;3.22;;;;;;;6.00;56.01;102104.25;10513445;28;20062;-70
2022/01/11 23:12:41;;;;;;;3.58;3.28;;;;;;;6.00;55.65;102098.94;10495218;28;20124;-71
2022/01/11 23:17:43;;;;;;;3.88;3.58;;;;;;;6.09;56.93;102112.78;10488251;28;20127;-72
2022/01/11 23:22:44;;;;;;;4.55;3.85;;;;;;;6.05;56.74;102101.44;10488474;28;20127;-72
2022/01/11 23:27:47;;;;;;;4.38;3.80;;;;;;;6.05;56.55;102100.56;10490930;28;20390;-72
2022/01/11 23:32:50;;;;;;;3.42;3.13;;;;;;;5.98;56.58;102098.13;10494416;28;20675;-71
2022/01/11 23:37:56;;;;;;;4.00;3.15;;;;;;;6.04;56.72;102098.84;10489566;28;20119;-71